Terminal Aerodrome Forecast
Issued by NWS

Home | Current Version | Previous Version | Text Only | Print | Product List | Glossary On
Versions: 1 2 3 4 5 6 7 8 9 10 11 12 13 14 15 16 17
000
FTAK31 PANC 201742
TAFAAQ
TAF
PAAQ 201742Z 2018/2118 VRB04KT P6SM OVC070
     FM210000 14008KT P6SM VCSH BKN035 OVC050
     FM210700 VRB04KT 3SM -SN BKN025 OVC035=

USA.gov is the U.S. government's official web portal to all federal, state and local government web resources and services.